createdAt,value
2022-08-08T00:00:52.313Z,21.08
2022-08-08T00:02:31.343Z,21.01
2022-08-08T00:05:44.095Z,21.01
2022-08-08T00:08:42.728Z,21.02
2022-08-08T00:11:23.809Z,20.98
2022-08-08T00:14:48.580Z,20.97
2022-08-08T00:17:58.504Z,20.89
2022-08-08T00:20:36.357Z,20.83
2022-08-08T00:23:09.780Z,20.80
2022-08-08T00:25:46.650Z,20.74
2022-08-08T00:28:35.621Z,20.71
2022-08-08T00:32:20.753Z,20.70
2022-08-08T00:34:27.165Z,20.63
2022-08-08T00:37:03.574Z,20.65
2022-08-08T00:41:11.652Z,20.58
2022-08-08T00:42:52.355Z,20.57
2022-08-08T00:45:39.728Z,20.59
2022-08-08T00:48:30.067Z,20.59
2022-08-08T00:51:42.233Z,20.59
2022-08-08T00:54:40.302Z,20.57
2022-08-08T00:57:45.871Z,20.55
2022-08-08T01:00:28.207Z,20.52
2022-08-08T01:04:02.154Z,20.48
2022-08-08T01:06:47.583Z,20.46
2022-08-08T01:09:42.758Z,20.43
2022-08-08T01:12:29.795Z,20.42
2022-08-08T01:15:44.236Z,20.39
2022-08-08T01:18:25.394Z,20.35
2022-08-08T01:21:15.776Z,20.39
2022-08-08T01:24:29.152Z,20.39
2022-08-08T01:26:57.263Z,20.39
2022-08-08T01:29:35.269Z,20.36
2022-08-08T01:32:53.494Z,20.33
2022-08-08T01:35:52.881Z,20.26
2022-08-08T01:38:57.128Z,20.25
2022-08-08T01:42:01.358Z,20.21
2022-08-08T01:44:57.962Z,20.20
2022-08-08T01:48:15.429Z,20.17
2022-08-08T01:50:42.810Z,20.11
2022-08-08T01:55:16.349Z,20.10
2022-08-08T01:56:56.840Z,20.10
2022-08-08T02:00:13.281Z,20.08
2022-08-08T02:02:58.445Z,20.10
2022-08-08T02:06:02.600Z,20.12
2022-08-08T02:08:38.526Z,20.10
2022-08-08T02:11:23.785Z,20.15
2022-08-08T02:14:16.092Z,20.08
2022-08-08T02:16:57.778Z,20.01
2022-08-08T02:20:07.336Z,20.04
2022-08-08T02:22:28.182Z,20.03
2022-08-08T02:25:11.538Z,20.00
2022-08-08T02:27:44.596Z,20.00
2022-08-08T02:30:24.640Z,20.09
2022-08-08T02:33:13.433Z,19.99
2022-08-08T02:36:03.774Z,19.97
2022-08-08T02:38:35.265Z,19.94
2022-08-08T02:41:17.940Z,19.93
2022-08-08T02:44:39.076Z,19.89
2022-08-08T02:47:16.841Z,19.91
2022-08-08T02:50:21.169Z,19.91
2022-08-08T02:53:02.781Z,19.91
2022-08-08T02:56:05.037Z,19.92
2022-08-08T02:58:54.189Z,19.88
2022-08-08T03:01:51.375Z,19.83
2022-08-08T03:05:02.765Z,19.94
2022-08-08T03:08:06.211Z,19.93
2022-08-08T03:11:47.487Z,20.00
2022-08-08T03:15:58.629Z,20.03
2022-08-08T03:17:39.212Z,20.10
2022-08-08T03:20:08.009Z,20.13
2022-08-08T03:22:45.068Z,20.23
2022-08-08T03:25:18.200Z,20.33
2022-08-08T03:27:49.435Z,20.35
2022-08-08T03:30:23.732Z,20.38
2022-08-08T03:32:59.974Z,20.44
2022-08-08T03:35:39.085Z,20.58
2022-08-08T03:38:57.068Z,20.68
2022-08-08T03:40:55.500Z,20.73
2022-08-08T03:43:22.935Z,20.82
2022-08-08T03:46:06.417Z,20.90
2022-08-08T03:49:56.142Z,20.99
2022-08-08T03:51:35.431Z,21.09
2022-08-08T03:54:09.949Z,21.22
2022-08-08T03:56:42.959Z,21.31
2022-08-08T03:59:22.665Z,21.35
2022-08-08T04:02:31.609Z,21.43
2022-08-08T04:04:37.664Z,21.53
2022-08-08T04:07:04.653Z,21.59
2022-08-08T04:09:59.325Z,21.67
2022-08-08T04:12:18.584Z,21.82
2022-08-08T04:14:46.759Z,21.88
2022-08-08T04:17:46.741Z,21.94
2022-08-08T04:20:06.267Z,22.03
2022-08-08T04:22:35.879Z,22.09
2022-08-08T04:25:04.582Z,22.20
2022-08-08T04:28:02.156Z,22.30
2022-08-08T04:30:19.786Z,22.37
2022-08-08T04:32:50.382Z,22.41
2022-08-08T04:35:20.299Z,22.52
2022-08-08T04:37:51.298Z,22.62
2022-08-08T04:40:18.790Z,22.70
2022-08-08T04:42:56.660Z,22.78
2022-08-08T04:45:26.084Z,22.80
2022-08-08T04:47:53.968Z,22.91
2022-08-08T04:50:23.844Z,22.97
2022-08-08T04:52:58.553Z,23.12
2022-08-08T04:55:37.947Z,23.18
2022-08-08T04:58:17.687Z,23.26
2022-08-08T05:00:45.034Z,23.36
2022-08-08T05:03:18.750Z,23.45
2022-08-08T05:06:12.713Z,23.50
2022-08-08T05:08:46.451Z,23.59
2022-08-08T05:11:23.929Z,23.64
2022-08-08T05:13:58.296Z,23.73
2022-08-08T05:16:53.304Z,23.85
2022-08-08T05:20:04.122Z,23.89
2022-08-08T05:22:09.851Z,23.96
2022-08-08T05:24:38.416Z,24.05
2022-08-08T05:27:06.680Z,24.17
2022-08-08T05:29:35.750Z,24.28
2022-08-08T05:32:06.455Z,24.42
2022-08-08T05:34:43.537Z,24.52
2022-08-08T05:37:19.033Z,24.61
2022-08-08T05:39:57.252Z,24.71
2022-08-08T05:42:37.631Z,24.79
2022-08-08T05:45:10.222Z,24.89
2022-08-08T05:48:00.180Z,24.96
2022-08-08T05:50:33.317Z,25.02
2022-08-08T05:53:54.103Z,25.11
2022-08-08T05:56:10.646Z,25.21
2022-08-08T05:58:57.951Z,25.36
2022-08-08T06:01:55.953Z,25.50
2022-08-08T06:04:23.822Z,25.62
2022-08-08T06:06:56.403Z,25.77
2022-08-08T06:09:57.963Z,25.90
2022-08-08T06:12:29.732Z,25.97
2022-08-08T06:15:00.975Z,26.06
2022-08-08T06:17:50.795Z,26.14
2022-08-08T06:20:21.749Z,26.25
2022-08-08T06:22:50.294Z,26.32
2022-08-08T06:25:17.959Z,26.41
2022-08-08T06:27:52.764Z,26.44
2022-08-08T06:30:26.208Z,26.48
2022-08-08T06:32:58.232Z,26.64
2022-08-08T06:36:06.466Z,26.73
2022-08-08T06:38:25.046Z,26.78
2022-08-08T06:41:01.923Z,26.91
2022-08-08T06:43:37.445Z,26.94
2022-08-08T06:46:09.274Z,27.00
2022-08-08T06:48:39.729Z,27.12
2022-08-08T06:51:11.236Z,27.13
2022-08-08T06:53:39.266Z,27.25
2022-08-08T06:56:08.311Z,27.36
2022-08-08T06:58:35.735Z,27.46
2022-08-08T07:01:24.255Z,27.50
2022-08-08T07:04:39.585Z,27.54
2022-08-08T07:06:50.157Z,27.56
2022-08-08T07:09:27.180Z,27.69
2022-08-08T07:12:10.269Z,27.79
2022-08-08T07:15:04.475Z,27.84
2022-08-08T07:18:01.700Z,27.94
2022-08-08T07:20:35.198Z,27.90
2022-08-08T07:23:28.087Z,27.96
2022-08-08T07:26:21.604Z,28.04
2022-08-08T07:28:56.756Z,28.12
2022-08-08T07:31:25.664Z,28.22
2022-08-08T07:33:59.181Z,28.27
2022-08-08T07:36:27.232Z,28.33
2022-08-08T07:38:58.780Z,28.32
2022-08-08T07:41:58.515Z,28.36
2022-08-08T07:44:37.550Z,28.41
2022-08-08T07:47:04.980Z,28.35
2022-08-08T07:49:32.264Z,28.36
2022-08-08T07:52:00.685Z,28.41
2022-08-08T07:55:03.392Z,28.48
2022-08-08T07:57:48.719Z,28.47
2022-08-08T08:00:17.264Z,28.42
2022-08-08T08:02:54.347Z,28.51
2022-08-08T08:05:33.353Z,28.55
2022-08-08T08:08:16.386Z,28.60
2022-08-08T08:10:50.087Z,28.62
2022-08-08T08:14:07.936Z,28.68
2022-08-08T08:16:41.158Z,28.60
2022-08-08T08:19:12.808Z,28.57
2022-08-08T08:21:57.540Z,28.42
2022-08-08T08:24:32.166Z,28.36
2022-08-08T08:27:02.998Z,28.35
2022-08-08T08:29:31.069Z,28.23
2022-08-08T08:32:03.307Z,28.12
2022-08-08T08:34:33.947Z,28.16
2022-08-08T08:37:07.549Z,28.36
2022-08-08T08:40:00.039Z,28.45
2022-08-08T08:42:31.643Z,28.40
2022-08-08T08:45:21.078Z,28.38
2022-08-08T08:47:52.993Z,28.26
2022-08-08T08:50:33.314Z,28.22
2022-08-08T08:53:54.309Z,28.17
2022-08-08T08:56:01.904Z,28.09
2022-08-08T08:58:35.229Z,28.05
2022-08-08T09:01:09.829Z,27.99
2022-08-08T09:03:47.153Z,27.99
2022-08-08T09:06:33.457Z,28.04
2022-08-08T09:09:04.257Z,28.18
2022-08-08T09:11:33.076Z,28.35
2022-08-08T09:14:01.362Z,28.33
2022-08-08T09:16:29.684Z,28.30
2022-08-08T09:19:00.100Z,28.39
2022-08-08T09:21:57.302Z,28.45
2022-08-08T09:24:16.209Z,28.45
2022-08-08T09:27:05.975Z,28.47
2022-08-08T09:30:02.171Z,28.70
2022-08-08T09:32:50.462Z,28.78
2022-08-08T09:35:31.834Z,28.88
2022-08-08T09:38:05.673Z,29.00
2022-08-08T09:40:44.012Z,29.01
2022-08-08T09:44:04.640Z,29.07
2022-08-08T09:46:25.400Z,29.23
2022-08-08T09:49:04.348Z,29.16
2022-08-08T09:52:06.153Z,29.20
2022-08-08T09:54:44.569Z,29.24
2022-08-08T09:57:17.114Z,29.27
2022-08-08T10:00:01.195Z,29.18
2022-08-08T10:02:40.172Z,29.07
2022-08-08T10:05:22.879Z,28.94
2022-08-08T10:07:52.280Z,28.81
2022-08-08T10:10:34.589Z,28.71
2022-08-08T10:13:32.365Z,28.70
2022-08-08T10:16:03.448Z,28.75
2022-08-08T10:18:36.717Z,28.88
2022-08-08T10:21:25.760Z,28.87
2022-08-08T10:24:03.310Z,28.87
2022-08-08T10:26:51.882Z,28.88
2022-08-08T10:29:56.990Z,28.88
2022-08-08T10:32:26.441Z,29.07
2022-08-08T10:35:01.296Z,29.13
2022-08-08T10:37:30.850Z,29.19
2022-08-08T10:40:02.611Z,29.30
2022-08-08T10:42:37.586Z,29.38
2022-08-08T10:45:08.996Z,29.34
2022-08-08T10:47:44.146Z,29.26
2022-08-08T10:50:16.192Z,29.20
2022-08-08T10:52:43.385Z,29.19
2022-08-08T10:55:39.437Z,29.01
2022-08-08T10:58:11.713Z,28.94
2022-08-08T11:01:02.133Z,28.91
2022-08-08T11:04:00.810Z,29.03
2022-08-08T11:06:34.986Z,29.12
2022-08-08T11:09:15.034Z,29.16
2022-08-08T11:12:05.099Z,29.21
2022-08-08T11:14:33.698Z,29.17
2022-08-08T11:17:03.856Z,29.20
2022-08-08T11:19:33.843Z,29.23
2022-08-08T11:22:03.993Z,29.30
2022-08-08T11:24:35.698Z,29.48
2022-08-08T11:27:10.486Z,29.59
2022-08-08T11:29:58.152Z,29.57
2022-08-08T11:32:42.432Z,29.51
2022-08-08T11:35:27.957Z,29.45
2022-08-08T11:38:36.239Z,29.42
2022-08-08T11:40:52.604Z,29.41
2022-08-08T11:43:21.681Z,29.43
2022-08-08T11:46:14.291Z,29.60
2022-08-08T11:48:40.088Z,29.67
2022-08-08T11:51:38.438Z,29.66
2022-08-08T11:54:01.339Z,29.55
2022-08-08T11:56:34.857Z,29.49
2022-08-08T11:59:12.187Z,29.56
2022-08-08T12:01:39.861Z,29.74
2022-08-08T12:04:09.272Z,29.83
2022-08-08T12:06:39.418Z,29.87
2022-08-08T12:09:17.132Z,29.83
2022-08-08T12:11:46.173Z,29.86
2022-08-08T12:14:29.338Z,29.85
2022-08-08T12:16:56.928Z,29.86
2022-08-08T12:19:37.597Z,29.98
2022-08-08T12:22:13.872Z,30.11
2022-08-08T12:24:51.348Z,30.21
2022-08-08T12:27:22.871Z,30.12
2022-08-08T12:29:58.065Z,29.97
2022-08-08T12:32:25.860Z,29.91
2022-08-08T12:35:13.274Z,29.90
2022-08-08T12:38:02.489Z,29.91
2022-08-08T12:40:56.854Z,29.92
2022-08-08T12:43:32.747Z,29.91
2022-08-08T12:46:19.113Z,29.90
2022-08-08T12:51:49.884Z,30.08
2022-08-08T12:54:27.878Z,30.09
2022-08-08T12:56:56.211Z,30.10
2022-08-08T12:59:36.592Z,30.02
2022-08-08T13:02:28.091Z,30.08
2022-08-08T13:04:58.788Z,30.08
2022-08-08T13:08:04.177Z,30.13
2022-08-08T13:10:56.912Z,30.11
2022-08-08T13:13:34.968Z,30.09
2022-08-08T13:16:25.874Z,29.93
2022-08-08T13:19:07.945Z,29.85
2022-08-08T13:21:53.624Z,29.88
2022-08-08T13:27:35.495Z,29.87
2022-08-08T13:30:26.165Z,29.84
2022-08-08T13:33:09.404Z,29.83
2022-08-08T13:35:43.174Z,29.88
2022-08-08T13:38:19.082Z,29.96
2022-08-08T13:43:51.037Z,29.83
2022-08-08T13:46:40.365Z,29.81
2022-08-08T13:50:38.394Z,29.96
2022-08-08T13:52:08.092Z,29.90
2022-08-08T13:54:40.744Z,30.02
2022-08-08T13:57:15.294Z,29.93
2022-08-08T14:02:33.100Z,29.88
2022-08-08T14:05:20.547Z,29.88
2022-08-08T14:07:52.380Z,29.84
2022-08-08T14:10:33.397Z,29.79
2022-08-08T14:13:05.871Z,30.01
2022-08-08T14:15:39.608Z,30.04
2022-08-08T14:18:36.139Z,30.01
2022-08-08T14:21:02.539Z,29.92
2022-08-08T14:24:07.860Z,30.00
2022-08-08T14:26:28.609Z,30.08
2022-08-08T14:28:57.861Z,30.12
2022-08-08T14:32:05.818Z,30.13
2022-08-08T14:34:22.807Z,30.16
2022-08-08T14:36:51.511Z,30.07
2022-08-08T14:39:20.678Z,29.98
2022-08-08T14:41:59.293Z,29.98
2022-08-08T14:44:35.071Z,30.03
2022-08-08T14:47:02.786Z,29.98
2022-08-08T14:50:06.434Z,29.83
2022-08-08T14:52:53.414Z,29.72
2022-08-08T14:55:22.225Z,29.66
2022-08-08T14:58:02.679Z,29.64
2022-08-08T15:00:34.866Z,29.73
2022-08-08T15:03:15.040Z,29.77
2022-08-08T15:05:54.354Z,29.85
2022-08-08T15:08:35.148Z,29.87
2022-08-08T15:11:08.955Z,29.97
2022-08-08T15:13:41.130Z,30.01
2022-08-08T15:16:23.455Z,30.02
2022-08-08T15:18:51.751Z,29.96
2022-08-08T15:21:20.633Z,29.82
2022-08-08T15:23:51.451Z,29.66
2022-08-08T15:26:21.432Z,29.49
2022-08-08T15:28:54.002Z,29.39
2022-08-08T15:31:55.696Z,29.32
2022-08-08T15:34:18.516Z,29.38
2022-08-08T15:36:57.932Z,29.38
2022-08-08T15:39:25.750Z,29.25
2022-08-08T15:41:52.876Z,29.19
2022-08-08T15:44:21.240Z,29.03
2022-08-08T15:46:50.581Z,28.92
2022-08-08T15:49:20.793Z,28.80
2022-08-08T15:51:50.156Z,28.76
2022-08-08T15:54:38.233Z,28.68
2022-08-08T15:57:07.485Z,28.56
2022-08-08T16:00:06.255Z,28.51
2022-08-08T16:02:22.344Z,28.45
2022-08-08T16:04:58.854Z,28.38
2022-08-08T16:07:50.962Z,28.32
2022-08-08T16:13:10.123Z,28.21
2022-08-08T16:13:27.906Z,28.14
2022-08-08T16:15:58.013Z,28.06
2022-08-08T16:18:30.606Z,28.04
2022-08-08T16:21:00.288Z,27.98
2022-08-08T16:23:31.857Z,27.93
2022-08-08T16:26:04.819Z,27.87
2022-08-08T16:28:44.250Z,27.82
2022-08-08T16:31:12.789Z,27.76
2022-08-08T16:33:40.598Z,27.73
2022-08-08T16:36:09.398Z,27.65
2022-08-08T16:38:40.711Z,27.62
2022-08-08T16:41:20.483Z,27.55
2022-08-08T16:43:52.154Z,27.50
2022-08-08T16:46:42.868Z,27.48
2022-08-08T16:49:09.226Z,27.44
2022-08-08T16:55:00.523Z,27.36
2022-08-08T16:55:06.020Z,27.39
2022-08-08T16:57:23.610Z,27.32
2022-08-08T16:59:58.896Z,27.26
2022-08-08T17:02:43.247Z,27.20
2022-08-08T17:05:13.654Z,27.16
2022-08-08T17:07:41.902Z,27.14
2022-08-08T17:10:10.281Z,27.10
2022-08-08T17:12:41.615Z,27.06
2022-08-08T17:15:17.388Z,27.03
2022-08-08T17:18:02.541Z,26.99
2022-08-08T17:20:32.344Z,26.96
2022-08-08T17:23:17.976Z,26.90
2022-08-08T17:25:53.687Z,26.87
2022-08-08T17:28:34.195Z,26.84
2022-08-08T17:31:43.458Z,26.82
2022-08-08T17:34:54.212Z,26.78
2022-08-08T17:37:00.241Z,26.74
2022-08-08T17:40:03.534Z,26.69
2022-08-08T17:42:18.174Z,26.65
2022-08-08T17:44:45.986Z,26.64
2022-08-08T17:47:23.282Z,26.63
2022-08-08T17:49:52.957Z,26.62
2022-08-08T17:52:23.243Z,26.63
2022-08-08T17:54:55.741Z,26.59
2022-08-08T17:57:24.329Z,26.57
2022-08-08T17:59:59.064Z,26.57
2022-08-08T18:02:30.002Z,26.52
2022-08-08T18:04:57.297Z,26.50
2022-08-08T18:08:03.500Z,26.47
2022-08-08T18:10:11.775Z,26.41
2022-08-08T18:12:38.871Z,26.36
2022-08-08T18:15:07.378Z,26.29
2022-08-08T18:18:08.951Z,26.27
2022-08-08T18:20:43.367Z,26.32
2022-08-08T18:23:12.514Z,26.34
2022-08-08T18:25:45.184Z,26.35
2022-08-08T18:28:13.521Z,26.31
2022-08-08T18:30:44.290Z,26.29
2022-08-08T18:33:36.420Z,26.16
2022-08-08T18:36:03.034Z,26.17
2022-08-08T18:38:32.429Z,26.10
2022-08-08T18:41:03.191Z,26.06
2022-08-08T18:43:42.866Z,26.01
2022-08-08T18:46:54.274Z,25.98
2022-08-08T18:48:58.161Z,25.82
2022-08-08T18:51:52.511Z,25.98
2022-08-08T18:54:22.814Z,25.96
2022-08-08T18:56:54.392Z,25.96
2022-08-08T18:59:22.837Z,25.92
2022-08-08T19:02:26.035Z,25.92
2022-08-08T19:04:37.304Z,25.83
2022-08-08T19:07:04.368Z,25.86
2022-08-08T19:09:48.481Z,25.80
2022-08-08T19:12:17.303Z,25.73
2022-08-08T19:14:46.280Z,25.71
2022-08-08T19:17:28.664Z,25.64
2022-08-08T19:20:02.995Z,25.47
2022-08-08T19:22:31.236Z,25.43
2022-08-08T19:25:30.689Z,25.34
2022-08-08T19:27:57.169Z,25.31
2022-08-08T19:30:27.901Z,25.24
2022-08-08T19:32:58.081Z,25.21
2022-08-08T19:35:44.997Z,25.18
2022-08-08T19:38:17.485Z,25.16
2022-08-08T19:40:54.350Z,25.09
2022-08-08T19:43:28.154Z,25.04
2022-08-08T19:45:57.409Z,24.94
2022-08-08T19:48:28.731Z,24.86
2022-08-08T19:50:57.759Z,24.84
2022-08-08T19:53:53.795Z,24.83
2022-08-08T19:56:14.045Z,24.74
2022-08-08T19:58:51.897Z,24.68
2022-08-08T20:01:24.064Z,24.67
2022-08-08T20:04:01.059Z,24.61
2022-08-08T20:06:30.382Z,24.63
2022-08-08T20:08:57.561Z,24.61
2022-08-08T20:11:24.974Z,24.60
2022-08-08T20:14:32.177Z,24.60
2022-08-08T20:16:40.912Z,24.56
2022-08-08T20:19:09.055Z,24.51
2022-08-08T20:21:37.095Z,24.44
2022-08-08T20:24:06.281Z,24.45
2022-08-08T20:26:38.375Z,24.38
2022-08-08T20:29:08.929Z,24.36
2022-08-08T20:32:08.065Z,24.33
2022-08-08T20:34:30.174Z,24.33
2022-08-08T20:36:59.945Z,24.28
2022-08-08T20:39:39.203Z,24.25
2022-08-08T20:42:13.760Z,24.18
2022-08-08T20:44:40.749Z,24.09
2022-08-08T20:47:22.947Z,24.07
2022-08-08T20:49:51.000Z,24.06
2022-08-08T20:52:24.683Z,24.01
2022-08-08T20:54:51.785Z,23.97
2022-08-08T20:57:20.912Z,23.96
2022-08-08T20:59:48.384Z,23.91
2022-08-08T21:02:19.644Z,23.88
2022-08-08T21:04:54.409Z,23.86
2022-08-08T21:07:47.687Z,23.81
2022-08-08T21:10:15.206Z,23.76
2022-08-08T21:12:46.055Z,23.74
2022-08-08T21:15:16.433Z,23.71
2022-08-08T21:18:01.095Z,23.56
2022-08-08T21:20:34.193Z,23.63
2022-08-08T21:23:03.075Z,23.58
2022-08-08T21:25:36.060Z,23.52
2022-08-08T21:28:14.862Z,23.56
2022-08-08T21:30:45.257Z,23.56
2022-08-08T21:33:17.278Z,23.55
2022-08-08T21:36:13.875Z,23.50
2022-08-08T21:38:31.042Z,23.48
2022-08-08T21:40:58.221Z,23.46
2022-08-08T21:43:34.303Z,23.46
2022-08-08T21:48:00.946Z,23.41
2022-08-08T21:48:55.105Z,23.34
2022-08-08T21:54:17.592Z,23.31
2022-08-08T21:54:32.212Z,23.23
2022-08-08T21:57:00.347Z,23.16
2022-08-08T22:00:02.647Z,23.17
2022-08-08T22:02:15.990Z,23.14
2022-08-08T22:04:46.452Z,23.12
2022-08-08T22:07:13.480Z,23.09
2022-08-08T22:09:40.975Z,23.06
2022-08-08T22:12:16.626Z,23.02
2022-08-08T22:14:47.459Z,23.00
2022-08-08T22:17:17.317Z,22.98
2022-08-08T22:20:11.429Z,22.96
2022-08-08T22:22:38.053Z,22.94
2022-08-08T22:25:19.844Z,22.87
2022-08-08T22:28:04.420Z,22.82
2022-08-08T22:30:42.560Z,22.84
2022-08-08T22:34:05.060Z,22.86
2022-08-08T22:36:05.235Z,22.81
2022-08-08T22:38:48.614Z,22.81
2022-08-08T22:41:21.525Z,22.78
2022-08-08T22:43:50.775Z,22.74
2022-08-08T22:46:29.991Z,22.68
2022-08-08T22:49:01.562Z,22.63
2022-08-08T22:51:29.252Z,22.60
2022-08-08T22:54:30.757Z,22.59
2022-08-08T22:56:50.134Z,22.58
2022-08-08T22:59:18.526Z,22.61
2022-08-08T23:02:03.958Z,22.56
2022-08-08T23:04:34.805Z,22.52
2022-08-08T23:07:02.727Z,22.48
2022-08-08T23:09:31.082Z,22.45
2022-08-08T23:12:28.444Z,22.45
2022-08-08T23:15:10.682Z,22.41
2022-08-08T23:17:46.859Z,22.43
2022-08-08T23:20:21.615Z,22.40
2022-08-08T23:22:54.431Z,22.39
2022-08-08T23:25:21.613Z,22.35
2022-08-08T23:27:54.620Z,22.25
2022-08-08T23:30:22.063Z,22.17
2022-08-08T23:32:49.570Z,22.15
2022-08-08T23:35:17.351Z,22.13
2022-08-08T23:38:01.168Z,22.15
2022-08-08T23:40:30.725Z,22.13
2022-08-08T23:42:57.764Z,22.08
2022-08-08T23:49:01.804Z,22.08
2022-08-08T23:49:05.809Z,22.01
2022-08-08T23:50:59.202Z,22.01
2022-08-08T23:54:06.086Z,21.99
2022-08-08T23:56:23.786Z,21.93
2022-08-08T23:58:59.461Z,21.91
